createdAt,value
2019-02-22T00:02:30.945Z,9.00
2019-02-22T00:05:06.100Z,9.00
2019-02-22T00:07:41.215Z,9.00
2019-02-22T00:10:16.239Z,9.00
2019-02-22T00:12:52.175Z,9.00
2019-02-22T00:15:27.550Z,9.00
2019-02-22T00:18:02.621Z,9.00
2019-02-22T00:20:41.114Z,8.90
2019-02-22T00:23:15.789Z,8.90
2019-02-22T00:25:51.249Z,9.00
2019-02-22T00:28:26.775Z,8.90
2019-02-22T00:31:02.119Z,8.90
2019-02-22T00:33:37.566Z,8.90
2019-02-22T00:36:14.065Z,8.90
2019-02-22T00:38:49.694Z,8.80
2019-02-22T00:41:24.725Z,8.80
2019-02-22T00:44:00.274Z,8.80
2019-02-22T00:46:35.615Z,8.80
2019-02-22T00:49:11.970Z,8.80
2019-02-22T00:51:47.007Z,8.90
2019-02-22T00:54:22.046Z,8.80
2019-02-22T00:56:57.044Z,8.80
2019-02-22T00:59:32.066Z,8.80
2019-02-22T01:02:07.092Z,8.70
2019-02-22T01:04:42.209Z,8.70
2019-02-22T01:07:17.239Z,8.70
2019-02-22T01:09:52.307Z,8.70
2019-02-22T01:12:27.415Z,8.60
2019-02-22T01:15:02.527Z,8.70
2019-02-22T01:17:39.307Z,8.60
2019-02-22T01:20:14.318Z,8.60
2019-02-22T01:22:50.433Z,8.60
2019-02-22T01:25:25.463Z,8.60
2019-02-22T01:28:00.782Z,8.60
2019-02-22T01:30:35.797Z,8.50
2019-02-22T01:33:10.901Z,8.60
2019-02-22T01:35:45.919Z,8.50
2019-02-22T01:38:20.953Z,8.40
2019-02-22T01:40:55.974Z,8.40
2019-02-22T01:43:33.400Z,8.40
2019-02-22T01:46:07.718Z,8.40
2019-02-22T01:48:42.757Z,8.50
2019-02-22T01:51:17.881Z,8.50
2019-02-22T01:53:54.096Z,8.40
2019-02-22T01:56:29.388Z,8.40
2019-02-22T01:59:04.809Z,8.40
2019-02-22T02:01:40.847Z,8.40
2019-02-22T02:04:16.218Z,8.40
2019-02-22T02:06:51.319Z,8.30
2019-02-22T02:09:26.416Z,8.30
2019-02-22T02:12:02.119Z,8.30
2019-02-22T02:14:37.758Z,8.30
2019-02-22T02:17:13.135Z,8.30
2019-02-22T02:19:48.699Z,8.30
2019-02-22T02:22:25.123Z,8.30
2019-02-22T02:25:00.619Z,8.20
2019-02-22T02:27:35.647Z,8.20
2019-02-22T02:30:10.959Z,8.20
2019-02-22T02:32:46.329Z,8.20
2019-02-22T02:35:22.645Z,8.20
2019-02-22T02:37:57.914Z,8.20
2019-02-22T02:40:33.241Z,8.20
2019-02-22T02:43:08.511Z,8.20
2019-02-22T02:45:43.542Z,8.20
2019-02-22T02:48:19.562Z,8.20
2019-02-22T02:50:55.935Z,8.20
2019-02-22T02:53:31.041Z,8.20
2019-02-22T02:56:06.074Z,8.20
2019-02-22T02:58:41.469Z,8.20
2019-02-22T03:01:16.513Z,8.20
2019-02-22T03:03:51.621Z,8.20
2019-02-22T03:06:34.693Z,8.20
2019-02-22T03:09:10.116Z,8.20
2019-02-22T03:11:47.170Z,8.10
2019-02-22T03:14:22.196Z,8.20
2019-02-22T03:16:57.229Z,8.10
2019-02-22T03:19:32.329Z,8.10
2019-02-22T03:22:07.615Z,8.10
2019-02-22T03:24:42.734Z,8.00
2019-02-22T03:27:18.206Z,8.00
2019-02-22T03:29:53.554Z,8.00
2019-02-22T03:32:29.302Z,7.90
2019-02-22T03:35:05.695Z,7.90
2019-02-22T03:37:41.700Z,7.90
2019-02-22T03:40:16.871Z,7.90
2019-02-22T03:42:51.926Z,7.80
2019-02-22T03:45:27.233Z,7.70
2019-02-22T03:48:02.598Z,7.50
2019-02-22T03:50:37.656Z,7.50
2019-02-22T03:53:20.327Z,7.40
2019-02-22T03:55:56.386Z,7.30
2019-02-22T03:58:31.732Z,7.30
2019-02-22T04:01:06.793Z,7.30
2019-02-22T04:03:43.649Z,7.30
2019-02-22T04:06:18.704Z,7.30
2019-02-22T04:08:54.034Z,7.20
2019-02-22T04:11:29.969Z,7.20
2019-02-22T04:14:05.963Z,7.20
2019-02-22T04:16:40.986Z,7.10
2019-02-22T04:19:16.012Z,7.00
2019-02-22T04:21:51.117Z,7.00
2019-02-22T04:24:26.486Z,7.00
2019-02-22T04:27:02.415Z,6.80
2019-02-22T04:29:37.813Z,6.60
2019-02-22T04:32:13.139Z,6.40
2019-02-22T04:34:48.481Z,6.30
2019-02-22T04:37:24.310Z,6.30
2019-02-22T04:39:59.398Z,6.10
2019-02-22T04:42:34.431Z,6.00
2019-02-22T04:45:09.455Z,5.90
2019-02-22T04:47:44.477Z,5.80
2019-02-22T04:50:19.493Z,5.70
2019-02-22T04:52:54.518Z,5.70
2019-02-22T04:55:29.531Z,5.60
2019-02-22T04:58:05.733Z,5.50
2019-02-22T05:00:40.767Z,5.50
2019-02-22T05:03:15.899Z,5.40
2019-02-22T05:05:50.913Z,5.30
2019-02-22T05:08:26.889Z,5.10
2019-02-22T05:11:01.926Z,5.00
2019-02-22T05:13:37.019Z,4.90
2019-02-22T05:16:12.026Z,4.90
2019-02-22T05:18:47.281Z,4.80
2019-02-22T05:21:22.382Z,4.80
2019-02-22T05:23:57.414Z,4.70
2019-02-22T05:26:32.430Z,4.60
2019-02-22T05:29:07.620Z,4.60
2019-02-22T05:31:42.662Z,4.50
2019-02-22T05:34:17.677Z,4.40
2019-02-22T05:36:52.836Z,4.30
2019-02-22T05:39:27.849Z,4.20
2019-02-22T05:42:03.795Z,4.10
2019-02-22T05:44:38.843Z,4.00
2019-02-22T05:47:14.299Z,4.00
2019-02-22T05:49:49.736Z,4.00
2019-02-22T05:52:25.166Z,4.00
2019-02-22T05:55:00.329Z,4.00
2019-02-22T05:57:35.435Z,4.00
2019-02-22T06:00:10.786Z,4.00
2019-02-22T06:02:47.143Z,3.90
2019-02-22T06:05:22.603Z,4.00
2019-02-22T06:07:57.635Z,4.00
2019-02-22T06:10:33.078Z,4.00
2019-02-22T06:13:08.102Z,4.10
2019-02-22T06:15:43.961Z,4.10
2019-02-22T06:18:18.987Z,4.00
2019-02-22T06:20:54.014Z,4.20
2019-02-22T06:23:29.128Z,4.10
2019-02-22T06:26:04.176Z,4.20
2019-02-22T06:28:39.267Z,4.10
2019-02-22T06:31:14.283Z,4.10
2019-02-22T06:33:49.304Z,4.00
2019-02-22T06:36:24.330Z,3.90
2019-02-22T06:38:59.708Z,3.90
2019-02-22T06:41:34.754Z,3.90
2019-02-22T06:44:11.904Z,4.00
2019-02-22T06:49:20.422Z,3.90
2019-02-22T06:51:55.462Z,3.80
2019-02-22T06:54:30.931Z,3.80
2019-02-22T06:57:06.270Z,3.70
2019-02-22T06:59:41.308Z,3.70
2019-02-22T07:02:16.343Z,3.60
2019-02-22T07:04:51.707Z,3.60
2019-02-22T07:07:27.744Z,3.50
2019-02-22T07:10:03.091Z,3.50
2019-02-22T07:12:40.782Z,3.50
2019-02-22T07:15:15.821Z,3.50
2019-02-22T07:17:50.917Z,3.30
2019-02-22T07:20:25.953Z,3.40
2019-02-22T07:23:01.250Z,3.40
2019-02-22T07:25:38.306Z,3.50
2019-02-22T07:28:13.339Z,3.40
2019-02-22T07:30:49.281Z,3.40
2019-02-22T07:33:24.661Z,3.30
2019-02-22T07:35:59.732Z,3.30
2019-02-22T07:38:34.817Z,3.10
2019-02-22T07:41:09.834Z,2.90
2019-02-22T07:43:44.850Z,2.80
2019-02-22T07:46:19.872Z,2.70
2019-02-22T07:48:54.904Z,2.50
2019-02-22T07:51:29.921Z,2.50
2019-02-22T07:54:04.945Z,2.50
2019-02-22T07:56:39.990Z,2.50
2019-02-22T07:59:15.014Z,2.40
2019-02-22T08:01:50.348Z,2.40
2019-02-22T08:04:31.730Z,2.30
2019-02-22T08:07:06.846Z,2.40
2019-02-22T08:09:43.073Z,2.30
2019-02-22T08:12:18.099Z,2.40
2019-02-22T08:14:53.682Z,2.40
2019-02-22T08:17:28.755Z,2.50
2019-02-22T08:20:06.616Z,2.60
2019-02-22T08:22:41.626Z,2.70
2019-02-22T08:25:16.654Z,2.90
2019-02-22T08:27:54.256Z,2.90
2019-02-22T08:30:31.204Z,3.00
2019-02-22T08:33:06.334Z,3.00
2019-02-22T08:35:41.429Z,3.00
2019-02-22T08:38:16.454Z,3.00
2019-02-22T08:40:51.491Z,3.00
2019-02-22T08:43:31.550Z,2.90
2019-02-22T08:56:24.007Z,2.90
2019-02-22T09:06:45.365Z,7.30
2019-02-22T09:09:20.377Z,9.00
2019-02-22T09:11:57.582Z,10.30
2019-02-22T09:14:32.435Z,11.20
2019-02-22T09:17:07.478Z,12.20
2019-02-22T09:19:42.676Z,12.90
2019-02-22T09:22:22.965Z,13.00
2019-02-22T09:24:54.446Z,13.10
2019-02-22T09:27:29.768Z,13.10
2019-02-22T09:30:08.621Z,13.20
2019-02-22T09:32:43.645Z,13.70
2019-02-22T09:35:21.001Z,13.90
2019-02-22T09:37:56.349Z,14.20
2019-02-22T09:40:31.694Z,14.30
2019-02-22T09:43:07.627Z,14.30
2019-02-22T09:45:42.982Z,14.00
2019-02-22T09:48:18.334Z,13.60
2019-02-22T09:56:04.983Z,14.40
2019-02-22T10:01:15.546Z,15.20
2019-02-22T10:03:51.477Z,15.10
2019-02-22T10:06:27.466Z,15.20
2019-02-22T10:09:06.587Z,15.30
2019-02-22T10:11:43.951Z,15.30
2019-02-22T10:14:18.979Z,13.60
2019-02-22T10:16:54.105Z,11.70
2019-02-22T10:19:29.375Z,10.90
2019-02-22T10:22:04.410Z,11.40
2019-02-22T10:24:39.553Z,12.20
2019-02-22T10:27:14.659Z,12.90
2019-02-22T10:29:50.160Z,13.20
2019-02-22T10:32:26.208Z,13.80
2019-02-22T10:35:02.486Z,13.90
2019-02-22T10:37:37.833Z,13.90
2019-02-22T10:40:14.820Z,14.20
2019-02-22T10:42:52.201Z,14.10
2019-02-22T10:45:27.658Z,14.70
2019-02-22T10:48:02.750Z,14.40
2019-02-22T10:50:37.777Z,14.90
2019-02-22T10:53:13.275Z,15.20
2019-02-22T10:55:49.281Z,15.80
2019-02-22T10:58:24.754Z,16.20
2019-02-22T11:01:00.850Z,16.00
2019-02-22T11:03:36.894Z,16.10
2019-02-22T11:06:13.488Z,16.30
2019-02-22T11:08:48.916Z,16.80
2019-02-22T11:11:24.981Z,16.30
2019-02-22T11:14:03.373Z,16.60
2019-02-22T11:16:40.771Z,16.70
2019-02-22T11:19:15.869Z,16.80
2019-02-22T11:21:51.259Z,17.20
2019-02-22T11:24:31.393Z,17.20
2019-02-22T11:27:07.490Z,16.60
2019-02-22T11:29:42.551Z,17.00
2019-02-22T11:32:18.647Z,16.90
2019-02-22T11:34:54.918Z,16.50
2019-02-22T11:37:30.068Z,16.30
2019-02-22T11:40:08.375Z,16.70
2019-02-22T11:42:44.731Z,16.60
2019-02-22T11:45:19.755Z,16.20
2019-02-22T11:47:54.788Z,16.50
2019-02-22T11:50:34.549Z,16.70
2019-02-22T11:53:09.630Z,16.70
2019-02-22T11:55:45.629Z,16.40
2019-02-22T11:58:20.729Z,16.70
2019-02-22T12:00:56.751Z,17.40
2019-02-22T12:03:31.758Z,17.60
2019-02-22T12:06:06.799Z,17.60
2019-02-22T12:08:43.030Z,17.70
2019-02-22T12:11:18.067Z,17.70
2019-02-22T12:13:54.035Z,16.80
2019-02-22T12:16:31.385Z,15.20
2019-02-22T12:19:06.406Z,13.50
2019-02-22T12:21:41.441Z,11.40
2019-02-22T12:24:17.464Z,9.60
2019-02-22T12:26:52.476Z,8.40
2019-02-22T12:29:27.869Z,7.60
2019-02-22T12:32:02.894Z,7.20
2019-02-22T12:34:37.940Z,6.70
2019-02-22T12:37:12.976Z,6.40
2019-02-22T12:39:48.075Z,6.10
2019-02-22T12:42:24.058Z,5.80
2019-02-22T12:45:02.886Z,5.70
2019-02-22T12:47:36.429Z,5.50
2019-02-22T12:50:12.288Z,5.40
2019-02-22T12:52:47.561Z,5.30
2019-02-22T12:55:22.597Z,5.20
2019-02-22T13:00:33.290Z,5.00
2019-02-22T13:03:08.420Z,4.90
2019-02-22T13:05:44.466Z,4.80
2019-02-22T13:08:19.559Z,4.80
2019-02-22T13:10:54.584Z,4.70
2019-02-22T13:13:29.631Z,4.70
2019-02-22T13:16:05.039Z,4.60
2019-02-22T13:18:40.395Z,4.60
2019-02-22T13:21:15.465Z,4.60
2019-02-22T13:23:50.480Z,4.60
2019-02-22T13:26:25.578Z,4.50
2019-02-22T13:29:00.939Z,4.60
2019-02-22T13:36:47.894Z,4.60
2019-02-22T13:39:24.293Z,4.50
2019-02-22T13:41:59.407Z,4.50
2019-02-22T13:44:35.509Z,4.30
2019-02-22T13:47:10.922Z,4.40
2019-02-22T13:49:46.240Z,4.30
2019-02-22T13:52:22.315Z,4.40
2019-02-22T13:54:57.314Z,4.40
2019-02-22T13:57:33.287Z,4.40
2019-02-22T14:00:16.932Z,4.40
2019-02-22T14:02:52.059Z,4.30
2019-02-22T14:05:28.370Z,4.30
2019-02-22T14:08:03.395Z,4.30
2019-02-22T14:10:38.725Z,4.30
2019-02-22T14:13:14.543Z,4.30
2019-02-22T14:15:50.833Z,4.30
2019-02-22T14:18:26.682Z,4.30
2019-02-22T14:21:01.720Z,4.20
2019-02-22T14:23:36.747Z,4.30
2019-02-22T14:26:12.209Z,4.20
2019-02-22T14:28:47.248Z,4.20
2019-02-22T14:31:22.265Z,4.20
2019-02-22T14:33:57.705Z,4.20
2019-02-22T14:36:32.736Z,4.10
2019-02-22T14:39:08.599Z,4.10
2019-02-22T14:41:44.234Z,4.10
2019-02-22T14:44:19.755Z,4.20
2019-02-22T14:46:55.009Z,4.10
2019-02-22T14:49:30.094Z,4.10
2019-02-22T14:52:06.448Z,4.00
2019-02-22T14:54:41.885Z,4.00
2019-02-22T14:57:16.897Z,4.00
2019-02-22T14:59:52.262Z,4.00
2019-02-22T15:02:27.280Z,4.00
2019-02-22T15:05:02.310Z,3.90
2019-02-22T15:07:37.925Z,3.90
2019-02-22T15:10:13.781Z,3.90
2019-02-22T15:12:48.799Z,3.90
2019-02-22T15:15:25.522Z,3.90
2019-02-22T15:18:05.233Z,3.80
2019-02-22T15:20:40.286Z,3.70
2019-02-22T15:23:15.562Z,3.80
2019-02-22T15:25:51.633Z,3.80
2019-02-22T15:28:27.277Z,3.80
2019-02-22T15:31:02.306Z,3.80
2019-02-22T15:33:37.654Z,3.70
2019-02-22T15:36:15.895Z,3.70
2019-02-22T15:38:49.960Z,3.70
2019-02-22T15:41:25.356Z,3.60
2019-02-22T15:44:01.451Z,3.50
2019-02-22T15:46:37.174Z,3.50
2019-02-22T15:49:12.723Z,3.40
2019-02-22T15:51:48.702Z,3.40
2019-02-22T15:54:24.081Z,3.40
2019-02-22T15:56:59.100Z,3.30
2019-02-22T15:59:34.166Z,3.30
2019-02-22T16:02:09.493Z,3.30
2019-02-22T16:04:46.166Z,3.20
2019-02-22T16:07:22.079Z,3.10
2019-02-22T16:09:57.471Z,3.10
2019-02-22T16:12:32.476Z,3.00
2019-02-22T16:15:09.627Z,3.00
2019-02-22T16:17:45.756Z,2.90
2019-02-22T16:20:21.086Z,2.90
2019-02-22T16:22:56.441Z,2.80
2019-02-22T16:25:31.792Z,2.80
2019-02-22T16:28:06.911Z,2.70
2019-02-22T16:30:42.069Z,2.70
2019-02-22T16:33:17.433Z,2.60
2019-02-22T16:35:52.534Z,2.50
2019-02-22T16:38:27.912Z,2.50
2019-02-22T16:41:03.269Z,2.50
2019-02-22T16:43:38.294Z,2.40
2019-02-22T16:46:13.318Z,2.40
2019-02-22T16:48:48.630Z,2.40
2019-02-22T16:51:23.682Z,2.30
2019-02-22T16:53:58.699Z,2.20
2019-02-22T16:56:33.770Z,2.20
2019-02-22T16:59:08.849Z,2.20
2019-02-22T17:06:54.187Z,2.10
2019-02-22T17:09:29.529Z,2.00
2019-02-22T17:12:06.683Z,2.00
2019-02-22T17:14:41.350Z,1.90
2019-02-22T17:17:16.814Z,1.90
2019-02-22T17:19:51.867Z,1.90
2019-02-22T17:22:27.258Z,1.80
2019-02-22T17:25:03.740Z,1.80
2019-02-22T17:27:38.796Z,1.70
2019-02-22T17:30:19.690Z,1.60
2019-02-22T17:32:54.766Z,1.60
2019-02-22T17:35:30.148Z,1.60
2019-02-22T17:38:05.180Z,1.50
2019-02-22T17:40:40.208Z,1.50
2019-02-22T17:43:15.249Z,1.50
2019-02-22T17:45:50.261Z,1.40
2019-02-22T17:48:25.293Z,1.50
2019-02-22T17:51:00.768Z,1.40
2019-02-22T17:53:36.286Z,1.40
2019-02-22T17:56:12.550Z,1.40
2019-02-22T17:58:47.608Z,1.40
2019-02-22T18:01:22.981Z,1.40
2019-02-22T18:03:58.032Z,1.30
2019-02-22T18:06:33.076Z,1.40
2019-02-22T18:09:09.055Z,1.30
2019-02-22T18:11:44.406Z,1.30
2019-02-22T18:14:21.171Z,1.20
2019-02-22T18:16:56.253Z,1.20
2019-02-22T18:19:31.998Z,1.10
2019-02-22T18:22:07.438Z,1.10
2019-02-22T18:24:42.491Z,1.10
2019-02-22T18:27:18.599Z,1.10
2019-02-22T18:29:53.627Z,1.10
2019-02-22T18:32:28.990Z,1.10
2019-02-22T18:35:05.882Z,1.00
2019-02-22T18:37:40.898Z,1.00
2019-02-22T18:40:20.949Z,1.00
2019-02-22T18:42:55.979Z,0.90
2019-02-22T18:45:31.531Z,0.90
2019-02-22T18:48:06.614Z,0.80
2019-02-22T18:50:41.990Z,0.80
2019-02-22T18:53:17.473Z,0.80
2019-02-22T18:55:52.805Z,0.70
2019-02-22T18:58:28.350Z,0.70
2019-02-22T19:01:03.365Z,0.70
2019-02-22T19:03:38.729Z,0.60
2019-02-22T19:06:14.074Z,0.60
2019-02-22T19:08:49.409Z,0.60
2019-02-22T19:11:24.861Z,0.50
2019-02-22T19:14:00.205Z,0.50
2019-02-22T19:16:35.539Z,0.50
2019-02-22T19:19:14.142Z,0.50
2019-02-22T19:21:48.886Z,0.50
2019-02-22T19:24:23.938Z,0.40
2019-02-22T19:26:59.267Z,0.50
2019-02-22T19:29:34.995Z,0.40
2019-02-22T19:32:10.628Z,0.40
2019-02-22T19:34:46.023Z,0.40
2019-02-22T19:37:21.043Z,0.40
2019-02-22T19:39:56.400Z,0.30
2019-02-22T19:42:32.770Z,0.30
2019-02-22T19:45:09.947Z,0.30
2019-02-22T19:47:45.302Z,0.20
2019-02-22T19:50:21.754Z,0.20
2019-02-22T19:52:56.798Z,0.20
2019-02-22T19:55:31.838Z,0.20
2019-02-22T19:58:07.193Z,0.20
2019-02-22T20:00:42.297Z,0.10
2019-02-22T20:03:17.780Z,0.10
2019-02-22T20:05:54.239Z,0.10
2019-02-22T20:08:29.689Z,0.00
2019-02-22T20:11:05.363Z,0.00
2019-02-22T20:13:40.500Z,0.00
2019-02-22T20:16:15.525Z,0.00
2019-02-22T20:18:50.605Z,-0.10
2019-02-22T20:21:25.732Z,0.00
2019-02-22T20:24:02.972Z,0.00
2019-02-22T20:26:39.172Z,-0.10
2019-02-22T20:29:14.787Z,-0.10
2019-02-22T20:31:50.222Z,-0.10
2019-02-22T20:34:25.656Z,-0.20
2019-02-22T20:37:00.757Z,-0.20
2019-02-22T20:39:35.939Z,-0.20
2019-02-22T20:42:11.055Z,-0.20
2019-02-22T20:44:46.236Z,-0.30
2019-02-22T20:47:21.789Z,-0.30
2019-02-22T20:49:57.797Z,-0.30
2019-02-22T20:52:32.864Z,-0.40
2019-02-22T20:55:12.283Z,-0.40
2019-02-22T20:57:47.673Z,-0.40
2019-02-22T21:00:27.499Z,-0.40
2019-02-22T21:03:02.650Z,-0.50
2019-02-22T21:05:38.685Z,-0.50
2019-02-22T21:08:14.011Z,-0.50
2019-02-22T21:10:49.459Z,-0.50
2019-02-22T21:13:24.906Z,-0.50
2019-02-22T21:16:00.255Z,-0.50
2019-02-22T21:18:35.289Z,-0.50
2019-02-22T21:21:12.403Z,-0.60
2019-02-22T21:23:47.422Z,-0.50
2019-02-22T21:26:22.788Z,-0.50
2019-02-22T21:31:33.035Z,-0.60
2019-02-22T21:34:08.080Z,-0.60
2019-02-22T21:36:43.106Z,-0.70
2019-02-22T21:39:19.343Z,-0.70
2019-02-22T21:41:54.810Z,-0.80
2019-02-22T21:44:29.900Z,-0.80
2019-02-22T21:47:05.274Z,-0.80
2019-02-22T21:49:40.721Z,-0.80
2019-02-22T21:52:16.273Z,-0.90
2019-02-22T21:54:51.372Z,-0.90
2019-02-22T21:57:26.757Z,-0.90
2019-02-22T22:00:01.832Z,-0.90
2019-02-22T22:02:37.070Z,-1.00
2019-02-22T22:05:12.203Z,-1.00
2019-02-22T22:07:47.641Z,-1.10
2019-02-22T22:10:22.678Z,-1.10
2019-02-22T22:12:57.895Z,-1.10
2019-02-22T22:15:32.950Z,-1.10
2019-02-22T22:18:08.256Z,-1.10
2019-02-22T22:20:44.431Z,-1.10
2019-02-22T22:23:19.859Z,-1.10
2019-02-22T22:25:54.894Z,-1.20
2019-02-22T22:28:30.247Z,-1.20
2019-02-22T22:31:05.370Z,-1.20
2019-02-22T22:33:40.455Z,-1.30
2019-02-22T22:36:15.897Z,-1.30
2019-02-22T22:38:51.417Z,-1.30
2019-02-22T22:41:26.480Z,-1.30
2019-02-22T22:44:01.895Z,-1.20
2019-02-22T22:46:37.421Z,-1.20
2019-02-22T22:49:12.976Z,-1.20
2019-02-22T22:51:48.008Z,-1.20
2019-02-22T22:54:23.361Z,-1.20
2019-02-22T22:56:58.375Z,-1.30
2019-02-22T22:59:33.676Z,-1.30
2019-02-22T23:02:08.868Z,-1.30
2019-02-22T23:04:44.351Z,-1.30
2019-02-22T23:07:19.782Z,-1.30
2019-02-22T23:09:54.919Z,-1.30
2019-02-22T23:12:30.051Z,-1.30
2019-02-22T23:15:05.931Z,-1.30
2019-02-22T23:17:41.075Z,-1.30
2019-02-22T23:20:16.234Z,-1.40
2019-02-22T23:22:52.532Z,-1.40
2019-02-22T23:28:03.406Z,-1.40
2019-02-22T23:33:13.427Z,-1.40
2019-02-22T23:35:48.648Z,-1.50
2019-02-22T23:38:24.187Z,-1.60
2019-02-22T23:40:59.520Z,-1.60
2019-02-22T23:43:34.559Z,-1.60
2019-02-22T23:46:09.634Z,-1.70
2019-02-22T23:48:45.352Z,-1.60
2019-02-22T23:51:20.396Z,-1.60
2019-02-22T23:53:55.444Z,-1.60
2019-02-22T23:56:30.488Z,-1.60
2019-02-22T23:59:05.554Z,-1.50
